createdAt,value
2018-11-10T00:02:14.502Z,13.03
2018-11-10T00:04:44.888Z,12.03
2018-11-10T00:07:15.581Z,12.47
2018-11-10T00:09:55.530Z,12.13
2018-11-10T00:12:26.070Z,12.47
2018-11-10T00:14:55.579Z,11.40
2018-11-10T00:17:26.297Z,12.63
2018-11-10T00:19:55.818Z,11.40
2018-11-10T00:22:30.414Z,11.93
2018-11-10T00:24:58.933Z,11.37
2018-11-10T00:27:30.465Z,11.47
2018-11-10T00:30:02.474Z,11.10
2018-11-10T00:32:31.145Z,11.70
2018-11-10T00:34:59.851Z,11.40
2018-11-10T00:37:32.677Z,11.10
2018-11-10T00:40:03.409Z,10.83
2018-11-10T00:42:39.628Z,9.93
2018-11-10T00:45:11.779Z,10.47
2018-11-10T00:47:52.329Z,9.73
2018-11-10T00:50:26.375Z,10.20
2018-11-10T00:53:00.006Z,9.97
2018-11-10T00:55:28.643Z,9.70
2018-11-10T00:57:57.385Z,9.83
2018-11-10T01:00:26.094Z,10.33
2018-11-10T01:03:05.482Z,10.33
2018-11-10T01:05:34.937Z,10.43
2018-11-10T01:08:06.075Z,9.67
2018-11-10T01:10:34.782Z,9.77
2018-11-10T01:13:03.330Z,9.03
2018-11-10T01:15:35.326Z,9.80
2018-11-10T01:18:15.275Z,9.03
2018-11-10T01:20:43.758Z,9.07
2018-11-10T01:23:13.321Z,9.03
2018-11-10T01:25:42.051Z,9.60
2018-11-10T01:28:10.643Z,8.60
2018-11-10T01:30:39.315Z,8.20
2018-11-10T01:33:08.033Z,8.87
2018-11-10T01:35:40.455Z,8.87
2018-11-10T01:38:09.882Z,9.10
2018-11-10T01:40:38.949Z,7.83
2018-11-10T01:43:07.860Z,8.37
2018-11-10T01:45:36.494Z,8.60
2018-11-10T01:48:05.542Z,7.80
2018-11-10T01:50:34.322Z,8.20
2018-11-10T01:53:02.964Z,7.63
2018-11-10T01:55:37.162Z,7.77
2018-11-10T01:58:14.002Z,8.33
2018-11-10T02:00:44.758Z,6.87
2018-11-10T02:03:14.350Z,7.47
2018-11-10T02:05:56.590Z,6.87
2018-11-10T02:08:25.364Z,7.17
2018-11-10T02:10:53.966Z,7.07
2018-11-10T02:13:28.197Z,6.80
2018-11-10T02:16:07.934Z,7.10
2018-11-10T02:18:49.934Z,6.47
2018-11-10T02:21:22.769Z,6.47
2018-11-10T02:23:57.001Z,6.30
2018-11-10T02:26:26.620Z,6.30
2018-11-10T02:28:56.165Z,5.70
2018-11-10T02:31:25.276Z,5.73
2018-11-10T02:33:55.974Z,5.30
2018-11-10T02:36:31.840Z,5.83
2018-11-10T02:39:00.298Z,5.40
2018-11-10T02:41:29.008Z,5.17
2018-11-10T02:43:57.681Z,5.27
2018-11-10T02:46:32.321Z,5.57
2018-11-10T02:49:00.783Z,5.20
2018-11-10T02:51:33.203Z,4.87
2018-11-10T02:54:01.842Z,5.00
2018-11-10T02:56:31.333Z,4.40
2018-11-10T02:59:06.088Z,4.63
2018-11-10T03:01:42.791Z,4.40
2018-11-10T03:04:11.515Z,4.40
2018-11-10T03:06:40.235Z,4.40
2018-11-10T03:09:15.285Z,4.00
2018-11-10T03:11:44.763Z,4.17
2018-11-10T03:14:19.056Z,4.27
2018-11-10T03:16:51.164Z,4.03
2018-11-10T03:19:29.456Z,4.30
2018-11-10T03:21:57.985Z,3.73
2018-11-10T03:24:32.156Z,4.30
2018-11-10T03:27:06.451Z,4.20
2018-11-10T03:29:53.077Z,4.17
2018-11-10T03:32:29.620Z,4.30
2018-11-10T03:35:03.865Z,4.37
2018-11-10T03:37:45.756Z,4.80
2018-11-10T03:40:20.013Z,4.50
2018-11-10T03:43:01.164Z,5.47
2018-11-10T03:45:34.004Z,4.67
2018-11-10T03:48:08.161Z,5.20
2018-11-10T03:50:38.724Z,5.00
2018-11-10T03:53:12.913Z,4.80
2018-11-10T03:56:00.167Z,4.50
2018-11-10T03:58:29.806Z,4.83
2018-11-10T04:00:58.443Z,4.90
2018-11-10T04:03:27.167Z,4.53
2018-11-10T04:06:01.414Z,4.63
2018-11-10T04:08:33.570Z,4.53
2018-11-10T04:11:15.294Z,4.67
2018-11-10T04:13:44.032Z,4.97
2018-11-10T04:16:12.656Z,4.33
2018-11-10T04:18:42.235Z,4.60
2018-11-10T04:21:11.803Z,4.83
2018-11-10T04:23:49.590Z,5.03
2018-11-10T04:26:29.362Z,5.07
2018-11-10T04:29:05.024Z,4.80
2018-11-10T04:31:33.498Z,4.10
2018-11-10T04:34:06.522Z,4.70
2018-11-10T04:36:36.169Z,4.53
2018-11-10T04:39:07.286Z,4.70
2018-11-10T04:41:37.738Z,4.63
2018-11-10T04:44:09.620Z,4.70
2018-11-10T04:46:50.185Z,4.77
2018-11-10T04:49:18.894Z,4.70
2018-11-10T04:51:53.090Z,4.60
2018-11-10T04:54:29.956Z,4.60
2018-11-10T04:57:00.581Z,4.60
2018-11-10T04:59:32.884Z,4.43
2018-11-10T05:02:08.318Z,4.10
2018-11-10T05:04:36.789Z,4.30
2018-11-10T05:07:07.549Z,4.10
2018-11-10T05:09:55.804Z,4.00
2018-11-10T05:15:18.652Z,3.63
2018-11-10T05:20:39.817Z,2.87
2018-11-10T05:23:08.441Z,3.07
2018-11-10T05:25:37.108Z,2.73
2018-11-10T05:28:06.025Z,2.60
2018-11-10T05:30:37.817Z,2.63
2018-11-10T05:33:11.891Z,2.80
2018-11-10T05:35:57.275Z,3.27
2018-11-10T05:38:29.277Z,3.30
2018-11-10T05:40:57.932Z,3.17
2018-11-10T05:43:32.201Z,3.20
2018-11-10T05:46:02.662Z,3.20
2018-11-10T05:48:34.245Z,3.00
2018-11-10T05:53:59.901Z,2.97
2018-11-10T05:56:29.350Z,3.57
2018-11-10T05:58:59.686Z,3.50
2018-11-10T06:01:32.078Z,3.00
2018-11-10T06:04:05.027Z,2.93
2018-11-10T06:06:33.602Z,3.37
2018-11-10T06:09:10.539Z,3.17
2018-11-10T06:11:39.745Z,2.80
2018-11-10T06:14:11.929Z,3.40
2018-11-10T06:16:40.616Z,3.37
2018-11-10T06:19:14.852Z,3.40
2018-11-10T06:21:46.950Z,3.40
2018-11-10T06:24:29.598Z,2.80
2018-11-10T06:27:12.186Z,2.87
2018-11-10T06:29:41.458Z,2.93
2018-11-10T06:32:20.111Z,3.10
2018-11-10T06:34:49.775Z,2.90
2018-11-10T06:37:18.479Z,3.13
2018-11-10T06:39:52.823Z,2.80
2018-11-10T06:42:23.618Z,3.23
2018-11-10T06:44:52.290Z,3.30
2018-11-10T06:47:38.930Z,3.17
2018-11-10T06:50:11.854Z,3.30
2018-11-10T06:52:40.520Z,3.40
2018-11-10T06:55:11.681Z,3.23
2018-11-10T06:57:41.237Z,2.90
2018-11-10T07:00:12.244Z,2.97
2018-11-10T07:02:41.406Z,2.63
2018-11-10T07:05:10.528Z,2.90
2018-11-10T07:07:39.674Z,3.00
2018-11-10T07:10:15.504Z,2.53
2018-11-10T07:13:03.505Z,2.80
2018-11-10T07:15:33.265Z,2.67
2018-11-10T07:18:08.235Z,2.70
2018-11-10T07:20:37.162Z,2.77
2018-11-10T07:23:05.790Z,2.43
2018-11-10T07:25:34.478Z,2.07
2018-11-10T07:28:03.874Z,2.50
2018-11-10T07:30:35.972Z,2.57
2018-11-10T07:33:04.925Z,2.40
2018-11-10T07:35:39.639Z,2.17
2018-11-10T07:38:12.655Z,2.40
2018-11-10T07:40:48.043Z,2.23
2018-11-10T07:43:22.390Z,2.40
2018-11-10T07:45:51.057Z,2.40
2018-11-10T07:48:21.085Z,2.50
2018-11-10T07:51:02.237Z,2.00
2018-11-10T07:53:31.003Z,2.20
2018-11-10T07:56:07.714Z,2.33
2018-11-10T07:58:39.763Z,2.70
2018-11-10T08:01:08.371Z,2.60
2018-11-10T08:03:39.973Z,2.60
2018-11-10T08:06:08.598Z,2.60
2018-11-10T08:08:42.649Z,3.10
2018-11-10T08:11:14.870Z,6.50
2018-11-10T08:13:44.503Z,2.73
2018-11-10T08:16:13.178Z,2.70
2018-11-10T08:18:47.435Z,2.80
2018-11-10T08:21:15.933Z,2.47
2018-11-10T08:23:44.631Z,2.60
2018-11-10T08:26:14.169Z,2.60
2018-11-10T08:28:46.496Z,2.80
2018-11-10T08:31:18.618Z,2.80
2018-11-10T08:33:47.141Z,2.70
2018-11-10T08:36:21.431Z,2.80
2018-11-10T08:38:55.414Z,3.07
2018-11-10T08:41:27.497Z,2.87
2018-11-10T08:43:59.542Z,2.63
2018-11-10T08:46:28.179Z,2.80
2018-11-10T08:49:12.844Z,2.70
2018-11-10T08:51:44.953Z,2.70
2018-11-10T08:54:25.388Z,2.60
2018-11-10T08:56:57.346Z,2.60
2018-11-10T08:59:26.048Z,2.83
2018-11-10T09:01:54.678Z,2.70
2018-11-10T09:04:28.957Z,2.33
2018-11-10T09:06:57.411Z,2.53
2018-11-10T09:09:26.910Z,2.47
2018-11-10T09:11:55.620Z,2.70
2018-11-10T09:14:25.121Z,2.67
2018-11-10T09:16:53.817Z,2.90
2018-11-10T09:19:22.554Z,3.00
2018-11-10T09:21:54.862Z,2.57
2018-11-10T09:24:29.509Z,3.70
2018-11-10T09:27:05.265Z,2.70
2018-11-10T09:29:35.715Z,2.93
2018-11-10T09:32:04.343Z,2.80
2018-11-10T09:34:38.582Z,2.53
2018-11-10T09:37:07.093Z,2.70
2018-11-10T09:39:38.637Z,2.90
2018-11-10T09:42:13.211Z,2.77
2018-11-10T09:44:41.745Z,2.70
2018-11-10T09:47:15.518Z,2.90
2018-11-10T09:49:47.414Z,2.60
2018-11-10T09:52:16.791Z,2.70
2018-11-10T09:54:57.379Z,2.53
2018-11-10T09:57:29.441Z,2.70
2018-11-10T10:00:09.924Z,2.57
2018-11-10T10:02:42.524Z,2.40
2018-11-10T10:05:20.415Z,2.43
2018-11-10T10:07:50.981Z,2.13
2018-11-10T10:10:20.816Z,2.60
2018-11-10T10:12:49.341Z,2.30
2018-11-10T10:15:24.423Z,2.80
2018-11-10T10:18:10.427Z,2.23
2018-11-10T10:20:42.371Z,2.53
2018-11-10T10:23:14.405Z,2.60
2018-11-10T10:25:46.334Z,2.70
2018-11-10T10:28:15.097Z,2.80
2018-11-10T10:30:43.876Z,2.73
2018-11-10T10:33:12.413Z,2.90
2018-11-10T10:35:46.555Z,2.50
2018-11-10T10:38:15.391Z,2.57
2018-11-10T10:40:43.763Z,3.30
2018-11-10T10:43:34.486Z,2.77
2018-11-10T10:46:07.416Z,2.90
2018-11-10T10:48:36.956Z,2.73
2018-11-10T10:51:06.146Z,2.70
2018-11-10T10:53:34.606Z,2.47
2018-11-10T10:56:08.128Z,2.97
2018-11-10T10:58:47.004Z,3.00
2018-11-10T11:04:17.738Z,3.00
2018-11-10T11:06:58.306Z,3.00
2018-11-10T11:12:19.926Z,2.80
2018-11-10T11:14:48.530Z,3.00
2018-11-10T11:17:17.748Z,2.70
2018-11-10T11:19:46.298Z,2.70
2018-11-10T11:22:14.982Z,2.87
2018-11-10T11:24:49.445Z,2.77
2018-11-10T11:27:23.165Z,2.73
2018-11-10T11:29:51.803Z,2.83
2018-11-10T11:32:24.064Z,3.00
2018-11-10T11:34:52.789Z,2.90
2018-11-10T11:37:24.794Z,2.73
2018-11-10T11:39:54.252Z,3.00
2018-11-10T11:42:28.649Z,2.83
2018-11-10T11:45:03.288Z,2.70
2018-11-10T11:47:36.743Z,2.47
2018-11-10T11:50:11.972Z,2.90
2018-11-10T11:52:49.056Z,2.60
2018-11-10T11:55:19.617Z,2.57
2018-11-10T11:57:52.794Z,3.30
2018-11-10T12:00:22.368Z,2.67
2018-11-10T12:02:50.909Z,2.50
2018-11-10T12:05:30.478Z,2.23
2018-11-10T12:08:11.429Z,2.17
2018-11-10T12:10:40.120Z,2.60
2018-11-10T12:13:08.693Z,3.00
2018-11-10T12:15:44.981Z,3.00
2018-11-10T12:18:29.765Z,3.30
2018-11-10T12:20:59.412Z,2.60
2018-11-10T12:23:34.801Z,2.60
2018-11-10T12:26:05.577Z,2.63
2018-11-10T12:28:45.246Z,2.67
2018-11-10T12:31:21.568Z,2.50
2018-11-10T12:33:55.746Z,2.80
2018-11-10T12:36:31.396Z,2.70
2018-11-10T12:39:23.487Z,2.47
2018-11-10T12:41:52.490Z,3.40
2018-11-10T12:44:22.948Z,2.20
2018-11-10T12:46:55.409Z,2.23
2018-11-10T12:49:31.211Z,2.50
2018-11-10T12:51:59.724Z,2.10
2018-11-10T12:54:29.186Z,2.17
2018-11-10T12:57:07.570Z,2.17
2018-11-10T12:59:43.147Z,2.20
2018-11-10T13:02:12.230Z,2.00
2018-11-10T13:04:40.742Z,2.40
2018-11-10T13:07:09.397Z,2.10
2018-11-10T13:09:44.054Z,2.00
2018-11-10T13:12:22.542Z,2.00
2018-11-10T13:14:56.019Z,2.17
2018-11-10T13:17:25.557Z,2.10
2018-11-10T13:19:54.219Z,2.43
2018-11-10T13:22:22.874Z,2.20
2018-11-10T13:24:57.050Z,1.67
2018-11-10T13:27:25.518Z,1.80
2018-11-10T13:29:54.272Z,1.83
2018-11-10T13:32:29.232Z,2.60
2018-11-10T13:35:03.960Z,2.10
2018-11-10T13:37:38.281Z,2.20
2018-11-10T13:40:09.598Z,1.60
2018-11-10T13:42:39.488Z,1.90
2018-11-10T13:45:09.834Z,1.77
2018-11-10T13:47:38.674Z,1.70
2018-11-10T13:50:13.129Z,2.20
2018-11-10T13:52:46.059Z,1.60
2018-11-10T13:55:21.908Z,1.60
2018-11-10T13:57:55.265Z,2.00
2018-11-10T14:00:24.751Z,1.67
2018-11-10T14:02:53.453Z,1.50
2018-11-10T14:05:24.277Z,1.80
2018-11-10T14:07:53.669Z,2.00
2018-11-10T14:10:28.369Z,2.10
2018-11-10T14:12:56.883Z,1.70
2018-11-10T14:15:35.186Z,1.60
2018-11-10T14:18:04.943Z,1.80
2018-11-10T14:20:33.578Z,1.80
2018-11-10T14:23:09.013Z,1.70
2018-11-10T14:25:44.134Z,2.17
2018-11-10T14:28:12.808Z,1.90
2018-11-10T14:30:43.513Z,1.70
2018-11-10T14:33:12.478Z,1.50
2018-11-10T14:35:43.219Z,1.60
2018-11-10T14:38:17.426Z,1.80
2018-11-10T14:40:45.931Z,1.90
2018-11-10T14:43:14.622Z,1.80
2018-11-10T14:45:45.319Z,1.80
2018-11-10T14:48:19.610Z,2.00
2018-11-10T14:50:51.749Z,1.63
2018-11-10T14:53:20.950Z,2.10
2018-11-10T14:55:49.549Z,2.03
2018-11-10T14:58:19.112Z,1.87
2018-11-10T15:00:47.777Z,1.80
2018-11-10T15:03:29.116Z,1.87
2018-11-10T15:06:01.912Z,2.07
2018-11-10T15:08:31.398Z,1.87
2018-11-10T15:11:05.891Z,2.00
2018-11-10T15:13:36.268Z,1.90
2018-11-10T15:16:04.923Z,1.90
2018-11-10T15:18:33.488Z,2.27
2018-11-10T15:21:10.184Z,2.33
2018-11-10T15:23:40.728Z,2.27
2018-11-10T15:26:11.863Z,1.50
2018-11-10T15:28:40.595Z,1.87
2018-11-10T15:31:10.036Z,1.83
2018-11-10T15:33:44.271Z,1.83
2018-11-10T15:36:12.757Z,4.07
2018-11-10T15:38:42.255Z,1.80
2018-11-10T15:41:16.898Z,1.90
2018-11-10T15:43:45.787Z,1.90
2018-11-10T15:46:18.978Z,2.97
2018-11-10T15:48:50.923Z,1.90
2018-11-10T15:51:20.484Z,2.10
2018-11-10T15:53:55.043Z,1.90
2018-11-10T15:56:23.522Z,1.97
2018-11-10T15:58:52.292Z,1.80
2018-11-10T16:01:29.459Z,1.90
2018-11-10T16:04:06.176Z,2.10
2018-11-10T16:06:38.386Z,1.90
2018-11-10T16:09:09.774Z,1.90
2018-11-10T16:11:50.304Z,2.30
2018-11-10T16:14:23.691Z,2.00
2018-11-10T16:16:57.909Z,1.90
2018-11-10T16:19:36.844Z,3.30
2018-11-10T16:22:05.706Z,5.47
2018-11-10T16:24:37.657Z,2.70
2018-11-10T16:27:12.215Z,2.17
2018-11-10T16:29:42.837Z,2.53
2018-11-10T16:32:17.481Z,2.23
2018-11-10T16:34:45.948Z,2.87
2018-11-10T16:37:18.800Z,2.53
2018-11-10T16:39:51.480Z,2.10
2018-11-10T16:42:27.797Z,2.20
2018-11-10T16:44:56.305Z,2.27
2018-11-10T16:47:31.336Z,2.50
2018-11-10T16:50:03.547Z,2.60
2018-11-10T16:52:43.989Z,2.83
2018-11-10T16:58:21.593Z,2.97
2018-11-10T17:00:50.258Z,3.27
2018-11-10T17:03:18.891Z,3.97
2018-11-10T17:05:47.637Z,4.20
2018-11-10T17:08:16.340Z,4.43
2018-11-10T17:10:44.951Z,3.50
2018-11-10T17:13:19.648Z,2.93
2018-11-10T17:16:00.400Z,2.63
2018-11-10T17:18:31.260Z,3.17
2018-11-10T17:20:59.883Z,2.87
2018-11-10T17:23:28.586Z,3.37
2018-11-10T17:25:57.283Z,2.90
2018-11-10T17:28:25.950Z,2.70
2018-11-10T17:30:54.644Z,2.33
2018-11-10T17:33:25.431Z,2.77
2018-11-10T17:35:57.372Z,2.90
2018-11-10T17:38:26.117Z,2.73
2018-11-10T17:41:07.350Z,2.90
2018-11-10T17:43:36.126Z,2.70
2018-11-10T17:46:05.386Z,2.87
2018-11-10T17:48:36.034Z,2.67
2018-11-10T17:51:10.994Z,2.83
2018-11-10T17:53:43.198Z,2.23
2018-11-10T17:56:13.110Z,1.97
2018-11-10T17:58:41.872Z,4.80
2018-11-10T18:01:12.514Z,5.07
2018-11-10T18:03:47.052Z,5.20
2018-11-10T18:06:15.863Z,2.80
2018-11-10T18:08:45.501Z,2.27
2018-11-10T18:11:19.753Z,2.20
2018-11-10T18:13:49.485Z,1.77
2018-11-10T18:16:32.388Z,1.57
2018-11-10T18:19:07.478Z,2.00
2018-11-10T18:21:37.936Z,1.40
2018-11-10T18:24:06.598Z,1.80
2018-11-10T18:26:36.134Z,1.90
2018-11-10T18:29:05.222Z,2.20
2018-11-10T18:31:37.633Z,2.33
2018-11-10T18:34:06.310Z,2.03
2018-11-10T18:36:35.375Z,3.13
2018-11-10T18:39:16.834Z,2.00
2018-11-10T18:41:45.500Z,1.80
2018-11-10T18:44:28.056Z,1.90
2018-11-10T18:46:57.886Z,1.93
2018-11-10T18:49:31.399Z,2.23
2018-11-10T18:52:02.122Z,2.10
2018-11-10T18:54:31.691Z,2.23
2018-11-10T18:57:07.343Z,3.20
2018-11-10T18:59:35.847Z,2.30
2018-11-10T19:02:04.471Z,2.40
2018-11-10T19:04:36.423Z,3.40
2018-11-10T19:07:06.070Z,2.47
2018-11-10T19:09:34.691Z,2.10
2018-11-10T19:12:09.209Z,2.20
2018-11-10T19:14:38.948Z,2.20
2018-11-10T19:17:14.415Z,1.60
2018-11-10T19:19:46.521Z,2.27
2018-11-10T19:22:15.288Z,2.60
2018-11-10T19:24:46.084Z,2.53
2018-11-10T19:27:14.795Z,2.57
2018-11-10T19:29:43.555Z,3.20
2018-11-10T19:32:13.770Z,3.20
2018-11-10T19:34:42.337Z,2.67
2018-11-10T19:37:11.875Z,2.73
2018-11-10T19:39:42.568Z,3.10
2018-11-10T19:42:12.135Z,3.10
2018-11-10T19:44:41.664Z,3.07
2018-11-10T19:47:10.288Z,2.30
2018-11-10T19:49:39.897Z,2.80
2018-11-10T19:52:08.693Z,2.37
2018-11-10T19:54:37.988Z,2.43
2018-11-10T19:57:07.566Z,2.50
2018-11-10T19:59:53.792Z,2.80
2018-11-10T20:02:28.033Z,4.80
2018-11-10T20:05:00.656Z,3.87
2018-11-10T20:07:30.180Z,3.37
2018-11-10T20:09:58.769Z,3.40
2018-11-10T20:12:28.302Z,2.97
2018-11-10T20:14:57.100Z,3.30
2018-11-10T20:17:25.674Z,3.17
2018-11-10T20:19:54.321Z,4.10
2018-11-10T20:22:23.070Z,4.27
2018-11-10T20:24:54.996Z,4.13
2018-11-10T20:27:23.706Z,4.67
2018-11-10T20:29:54.446Z,4.57
2018-11-10T20:32:29.469Z,5.57
2018-11-10T20:34:59.157Z,4.90
2018-11-10T20:37:31.688Z,4.83
2018-11-10T20:40:00.256Z,4.50
2018-11-10T20:42:35.277Z,4.83
2018-11-10T20:45:04.148Z,4.93
2018-11-10T20:47:33.793Z,5.07
2018-11-10T20:50:04.820Z,4.90
2018-11-10T20:52:35.494Z,4.57
2018-11-10T20:55:11.618Z,4.53
2018-11-10T20:57:45.959Z,5.03
2018-11-10T21:00:17.332Z,4.50
2018-11-10T21:02:46.352Z,4.57
2018-11-10T21:05:16.772Z,4.17
2018-11-10T21:07:47.985Z,4.23
2018-11-10T21:10:21.277Z,4.50
2018-11-10T21:12:51.293Z,4.87
2018-11-10T21:15:21.951Z,4.37
2018-11-10T21:17:50.752Z,3.93
2018-11-10T21:20:21.567Z,3.83
2018-11-10T21:22:56.039Z,4.30
2018-11-10T21:25:26.585Z,3.83
2018-11-10T21:27:55.300Z,4.40
2018-11-10T21:30:25.598Z,4.47
2018-11-10T21:32:57.678Z,4.43
2018-11-10T21:35:29.327Z,4.80
2018-11-10T21:37:57.964Z,4.33
2018-11-10T21:40:26.621Z,4.83
2018-11-10T21:42:55.280Z,4.53
2018-11-10T21:45:24.004Z,4.93
2018-11-10T21:47:53.487Z,4.33
2018-11-10T21:50:22.259Z,4.10
2018-11-10T21:53:02.552Z,4.37
2018-11-10T21:55:43.603Z,4.23
2018-11-10T21:58:15.703Z,4.40
2018-11-10T22:00:44.345Z,4.70
2018-11-10T22:03:13.123Z,4.27
2018-11-10T22:05:41.693Z,4.50
2018-11-10T22:08:15.374Z,4.70
2018-11-10T22:10:55.268Z,4.70
2018-11-10T22:13:25.806Z,4.17
2018-11-10T22:15:54.608Z,4.37
2018-11-10T22:18:23.230Z,4.90
2018-11-10T22:20:51.946Z,4.10
2018-11-10T22:23:20.568Z,4.57
2018-11-10T22:25:49.275Z,4.47
2018-11-10T22:28:17.922Z,4.20
2018-11-10T22:30:46.634Z,4.27
2018-11-10T22:33:16.126Z,4.63
2018-11-10T22:35:46.434Z,4.10
2018-11-10T22:38:21.988Z,3.97
2018-11-10T22:41:03.202Z,4.13
2018-11-10T22:52:09.949Z,3.37
2018-11-10T22:54:38.583Z,3.70
2018-11-10T22:57:07.508Z,3.90
2018-11-10T22:59:36.377Z,3.30
2018-11-10T23:02:05.136Z,3.57
2018-11-10T23:04:37.526Z,3.53
2018-11-10T23:07:06.316Z,3.40
2018-11-10T23:09:37.409Z,3.70
2018-11-10T23:12:07.224Z,3.37
2018-11-10T23:14:35.872Z,3.50
2018-11-10T23:17:04.882Z,3.27
2018-11-10T23:19:36.866Z,3.87
2018-11-10T23:22:05.649Z,3.80
2018-11-10T23:24:34.213Z,4.20
2018-11-10T23:27:02.882Z,3.80
2018-11-10T23:29:39.139Z,3.67
2018-11-10T23:32:11.754Z,3.57
2018-11-10T23:34:46.801Z,4.07
2018-11-10T23:37:18.930Z,4.03
2018-11-10T23:39:53.127Z,3.27
2018-11-10T23:42:27.359Z,3.40
2018-11-10T23:44:56.032Z,3.40
2018-11-10T23:47:25.635Z,3.50
2018-11-10T23:50:04.108Z,3.03
2018-11-10T23:52:36.068Z,3.10
2018-11-10T23:55:04.791Z,3.50
2018-11-10T23:57:34.219Z,3.00
